createdAt,value
2022-10-15T00:01:09.838Z,4.43
2022-10-15T00:03:38.375Z,5.22
2022-10-15T00:06:16.678Z,4.50
2022-10-15T00:08:44.058Z,7.13
2022-10-15T00:11:13.496Z,5.60
2022-10-15T00:13:40.414Z,4.43
2022-10-15T00:16:18.073Z,5.32
2022-10-15T00:18:44.847Z,4.43
2022-10-15T00:21:14.286Z,4.53
2022-10-15T00:23:41.532Z,6.07
2022-10-15T00:26:11.002Z,6.13
2022-10-15T00:28:37.826Z,5.30
2022-10-15T00:31:07.292Z,5.30
2022-10-15T00:33:34.612Z,5.38
2022-10-15T00:36:07.275Z,4.80
2022-10-15T00:38:35.473Z,6.47
2022-10-15T00:41:03.369Z,5.68
2022-10-15T00:43:48.388Z,5.18
2022-10-15T00:46:23.959Z,4.72
2022-10-15T00:48:55.902Z,4.60
2022-10-15T00:51:26.519Z,4.15
2022-10-15T00:53:53.219Z,4.88
2022-10-15T00:56:22.775Z,5.38
2022-10-15T00:58:51.863Z,4.85
2022-10-15T01:01:18.454Z,5.05
2022-10-15T01:03:45.177Z,4.25
2022-10-15T01:06:11.726Z,5.57
2022-10-15T01:08:38.513Z,5.75
2022-10-15T01:11:26.802Z,4.63
2022-10-15T01:14:30.407Z,4.90
2022-10-15T01:17:22.228Z,5.35
2022-10-15T01:20:10.846Z,5.20
2022-10-15T01:23:13.861Z,4.57
2022-10-15T01:25:49.727Z,5.30
2022-10-15T01:28:47.054Z,5.95
2022-10-15T01:31:38.156Z,5.18
2022-10-15T01:34:34.004Z,5.00
2022-10-15T01:37:03.098Z,5.03
2022-10-15T01:39:37.257Z,5.40
2022-10-15T01:42:10.167Z,5.50
2022-10-15T01:44:50.814Z,5.35
2022-10-15T01:47:30.149Z,5.35
2022-10-15T01:50:00.374Z,6.50
2022-10-15T01:52:32.491Z,5.13
2022-10-15T01:55:02.213Z,4.03
2022-10-15T01:57:32.474Z,5.45
2022-10-15T01:59:59.252Z,5.70
2022-10-15T02:02:26.294Z,6.40
2022-10-15T02:04:53.200Z,5.70
2022-10-15T02:07:33.434Z,6.15
2022-10-15T02:10:05.763Z,4.80
2022-10-15T02:12:52.290Z,6.28
2022-10-15T02:18:04.289Z,5.05
2022-10-15T02:20:59.356Z,4.80
2022-10-15T02:23:39.831Z,5.40
2022-10-15T02:26:09.547Z,6.43
2022-10-15T02:28:42.222Z,4.97
2022-10-15T02:31:12.248Z,6.38
2022-10-15T02:33:39.161Z,5.18
2022-10-15T02:36:07.382Z,5.75
2022-10-15T02:38:36.350Z,4.93
2022-10-15T02:41:03.160Z,5.35
2022-10-15T02:43:31.089Z,7.00
2022-10-15T02:45:57.640Z,6.13
2022-10-15T02:48:25.172Z,6.50
2022-10-15T02:50:51.754Z,6.07
2022-10-15T02:53:18.298Z,5.95
2022-10-15T02:55:46.881Z,4.95
2022-10-15T02:58:13.515Z,5.57
2022-10-15T03:00:40.110Z,5.68
2022-10-15T03:03:06.675Z,5.40
2022-10-15T03:05:34.966Z,5.78
2022-10-15T03:08:01.652Z,6.75
2022-10-15T03:10:28.174Z,5.43
2022-10-15T03:12:54.774Z,5.40
2022-10-15T03:15:21.328Z,5.53
2022-10-15T03:17:47.848Z,4.90
2022-10-15T03:20:14.398Z,6.10
2022-10-15T03:22:40.916Z,6.75
2022-10-15T03:25:07.687Z,5.20
2022-10-15T03:27:34.599Z,3.95
2022-10-15T03:30:01.183Z,4.13
2022-10-15T03:32:27.877Z,5.63
2022-10-15T03:34:54.474Z,5.10
2022-10-15T03:37:21.400Z,5.75
2022-10-15T03:39:48.231Z,4.72
2022-10-15T03:42:14.941Z,5.28
2022-10-15T03:44:41.462Z,5.38
2022-10-15T03:47:08.244Z,4.88
2022-10-15T03:49:34.887Z,6.35
2022-10-15T03:52:01.897Z,5.90
2022-10-15T03:54:28.416Z,4.88
2022-10-15T03:56:54.986Z,4.93
2022-10-15T03:59:22.035Z,4.57
2022-10-15T04:01:48.546Z,5.22
2022-10-15T04:04:15.097Z,4.57
2022-10-15T04:06:41.635Z,6.15
2022-10-15T04:09:10.824Z,5.18
2022-10-15T04:11:37.380Z,4.32
2022-10-15T04:14:03.978Z,5.82
2022-10-15T04:16:30.506Z,4.93
2022-10-15T04:18:58.772Z,5.07
2022-10-15T04:21:26.067Z,5.53
2022-10-15T04:23:52.614Z,4.97
2022-10-15T04:26:19.184Z,4.53
2022-10-15T04:28:48.593Z,4.18
2022-10-15T04:31:15.584Z,4.90
2022-10-15T04:33:42.163Z,5.22
2022-10-15T04:36:13.178Z,4.60
2022-10-15T04:38:40.173Z,4.50
2022-10-15T04:41:09.531Z,4.10
2022-10-15T04:43:36.529Z,5.07
2022-10-15T04:46:06.268Z,4.57
2022-10-15T04:48:36.594Z,5.30
2022-10-15T04:51:05.494Z,4.78
2022-10-15T04:53:32.276Z,4.40
2022-10-15T04:56:07.777Z,5.53
2022-10-15T04:58:35.628Z,5.70
2022-10-15T05:01:12.055Z,5.10
2022-10-15T05:03:44.033Z,5.57
2022-10-15T05:06:17.118Z,5.78
2022-10-15T05:08:43.956Z,5.80
2022-10-15T05:11:13.565Z,5.15
2022-10-15T05:13:40.581Z,3.97
2022-10-15T05:16:15.533Z,5.10
2022-10-15T05:18:43.989Z,4.78
2022-10-15T05:21:11.658Z,6.07
2022-10-15T05:23:38.999Z,4.88
2022-10-15T05:26:11.386Z,5.32
2022-10-15T05:28:38.010Z,6.57
2022-10-15T05:31:11.061Z,6.22
2022-10-15T05:33:40.290Z,6.40
2022-10-15T05:36:14.289Z,7.03
2022-10-15T05:38:41.363Z,5.85
2022-10-15T05:41:07.894Z,6.85
2022-10-15T05:43:37.408Z,6.15
2022-10-15T05:46:07.219Z,5.60
2022-10-15T05:48:33.744Z,6.18
2022-10-15T05:51:02.463Z,5.80
2022-10-15T05:53:29.174Z,4.90
2022-10-15T05:55:55.947Z,4.88
2022-10-15T05:58:22.505Z,5.47
2022-10-15T06:00:56.474Z,5.32
2022-10-15T06:03:23.627Z,4.80
2022-10-15T06:05:50.361Z,3.60
2022-10-15T06:08:17.395Z,4.57
2022-10-15T06:10:44.446Z,4.72
2022-10-15T06:13:11.825Z,5.47
2022-10-15T06:15:42.696Z,5.07
2022-10-15T06:18:10.641Z,4.10
2022-10-15T06:20:37.649Z,5.25
2022-10-15T06:23:05.904Z,5.28
2022-10-15T06:25:33.846Z,5.38
2022-10-15T06:28:05.323Z,3.33
2022-10-15T06:30:32.257Z,4.47
2022-10-15T06:32:59.168Z,3.03
2022-10-15T06:35:27.009Z,3.17
2022-10-15T06:37:53.662Z,3.42
2022-10-15T06:40:20.194Z,2.88
2022-10-15T06:42:46.761Z,2.58
2022-10-15T06:45:15.896Z,3.72
2022-10-15T06:47:44.848Z,3.33
2022-10-15T06:50:12.113Z,4.28
2022-10-15T06:52:39.240Z,3.72
2022-10-15T06:55:06.233Z,2.90
2022-10-15T06:57:32.796Z,3.13
2022-10-15T06:59:59.361Z,3.03
2022-10-15T07:02:26.237Z,2.95
2022-10-15T07:04:53.041Z,3.45
2022-10-15T07:07:19.681Z,3.03
2022-10-15T07:09:47.459Z,2.65
2022-10-15T07:12:14.178Z,2.75
2022-10-15T07:14:42.463Z,3.83
2022-10-15T07:17:09.225Z,2.83
2022-10-15T07:19:35.829Z,2.80
2022-10-15T07:22:02.460Z,2.97
2022-10-15T07:24:28.982Z,2.25
2022-10-15T07:26:55.514Z,2.53
2022-10-15T07:29:22.097Z,2.70
2022-10-15T07:31:48.637Z,3.92
2022-10-15T07:34:15.193Z,2.15
2022-10-15T07:36:41.775Z,2.33
2022-10-15T07:39:09.823Z,2.22
2022-10-15T07:41:36.395Z,3.08
2022-10-15T07:44:03.819Z,2.55
2022-10-15T07:46:30.363Z,2.47
2022-10-15T07:48:56.922Z,2.83
2022-10-15T07:51:23.489Z,2.65
2022-10-15T07:53:50.047Z,3.30
2022-10-15T07:56:16.687Z,3.35
2022-10-15T07:58:51.309Z,2.60
2022-10-15T08:01:19.785Z,2.70
2022-10-15T08:03:46.658Z,3.22
2022-10-15T08:06:13.449Z,2.20
2022-10-15T08:08:40.045Z,2.67
2022-10-15T08:11:08.717Z,2.75
2022-10-15T08:13:35.673Z,3.35
2022-10-15T08:16:02.303Z,3.38
2022-10-15T08:18:29.006Z,2.83
2022-10-15T08:20:59.078Z,2.70
2022-10-15T08:23:25.707Z,2.92
2022-10-15T08:25:52.291Z,2.45
2022-10-15T08:28:18.946Z,3.17
2022-10-15T08:30:45.594Z,2.75
2022-10-15T08:33:12.573Z,2.53
2022-10-15T08:35:43.688Z,2.50
2022-10-15T08:38:14.659Z,2.22
2022-10-15T08:40:56.087Z,3.28
2022-10-15T08:43:43.486Z,2.83
2022-10-15T08:46:14.086Z,2.88
2022-10-15T08:48:52.449Z,2.88
2022-10-15T08:51:21.755Z,3.13
2022-10-15T08:53:59.655Z,3.10
2022-10-15T08:56:37.239Z,2.92
2022-10-15T08:59:24.858Z,2.33
2022-10-15T09:01:58.333Z,2.25
2022-10-15T09:04:24.889Z,3.10
2022-10-15T09:07:03.949Z,2.80
2022-10-15T09:09:52.027Z,3.05
2022-10-15T09:12:33.469Z,2.75
2022-10-15T09:15:01.167Z,3.05
2022-10-15T09:17:32.854Z,2.00
2022-10-15T09:20:04.889Z,2.97
2022-10-15T09:22:34.525Z,2.67
2022-10-15T09:25:15.125Z,2.97
2022-10-15T09:27:42.658Z,2.90
2022-10-15T09:30:38.247Z,3.13
2022-10-15T09:33:35.310Z,2.97
2022-10-15T09:36:14.206Z,3.75
2022-10-15T09:38:43.735Z,3.47
2022-10-15T09:41:25.559Z,2.15
2022-10-15T09:43:55.984Z,4.20
2022-10-15T09:46:22.497Z,3.35
2022-10-15T10:25:58.032Z,3.20
2022-10-15T10:28:56.985Z,5.10
2022-10-15T10:31:42.471Z,17.73
2022-10-15T10:34:15.834Z,18.98
2022-10-15T10:36:44.170Z,15.85
2022-10-15T10:39:13.190Z,7.47
2022-10-15T10:41:49.837Z,4.13
2022-10-15T10:44:26.086Z,2.95
2022-10-15T10:47:01.712Z,2.65
2022-10-15T10:51:59.333Z,1.88
2022-10-15T10:54:28.159Z,3.67
2022-10-15T10:56:57.043Z,2.40
2022-10-15T10:59:36.944Z,2.38
2022-10-15T11:02:09.694Z,4.85
2022-10-15T11:04:36.479Z,3.22
2022-10-15T11:07:27.571Z,2.67
2022-10-15T11:09:56.984Z,2.65
2022-10-15T11:12:38.590Z,2.67
2022-10-15T11:15:14.394Z,2.92
2022-10-15T11:17:47.169Z,2.40
2022-10-15T11:21:04.503Z,2.75
2022-10-15T11:24:00.986Z,3.45
2022-10-15T11:27:10.896Z,4.25
2022-10-15T11:29:58.049Z,11.20
2022-10-15T11:33:06.233Z,3.25
2022-10-15T11:36:01.104Z,3.22
2022-10-15T11:38:45.958Z,3.08
2022-10-15T11:41:45.982Z,3.53
2022-10-15T11:44:31.106Z,5.15
2022-10-15T11:49:42.409Z,24.67
2022-10-15T11:52:46.107Z,13.32
2022-10-15T11:55:20.966Z,9.63
2022-10-15T11:57:51.161Z,4.47
2022-10-15T12:00:42.844Z,3.85
2022-10-15T12:03:24.867Z,3.70
2022-10-15T12:05:56.964Z,3.10
2022-10-15T12:08:26.794Z,1.40
2022-10-15T12:11:21.691Z,1.75
2022-10-15T12:14:21.112Z,3.17
2022-10-15T12:17:25.960Z,3.33
2022-10-15T12:20:23.222Z,3.13
2022-10-15T12:22:52.489Z,2.40
2022-10-15T12:25:34.335Z,1.80
2022-10-15T12:28:04.827Z,1.70
2022-10-15T12:30:34.434Z,15.30
2022-10-15T12:33:02.421Z,4.68
2022-10-15T12:35:37.005Z,3.72
2022-10-15T12:38:21.797Z,2.38
2022-10-15T12:43:22.405Z,3.67
2022-10-15T12:45:55.327Z,1.95
2022-10-15T12:48:30.265Z,2.08
2022-10-15T12:51:21.918Z,2.42
2022-10-15T12:53:50.407Z,2.55
2022-10-15T12:56:16.897Z,2.45
2022-10-15T12:58:44.693Z,8.85
2022-10-15T13:01:14.037Z,1.83
2022-10-15T13:03:50.113Z,2.22
2022-10-15T13:06:22.957Z,2.03
2022-10-15T13:09:10.583Z,2.15
2022-10-15T13:11:46.136Z,1.70
2022-10-15T13:14:24.492Z,2.20
2022-10-15T13:16:51.272Z,2.85
2022-10-15T13:19:28.539Z,2.22
2022-10-15T13:42:09.044Z,2.65
2022-10-15T13:44:35.930Z,2.33
2022-10-15T13:47:03.491Z,2.33
2022-10-15T13:49:30.242Z,3.65
2022-10-15T13:51:56.915Z,2.83
2022-10-15T13:54:31.570Z,2.53
2022-10-15T13:57:01.845Z,3.15
2022-10-15T13:59:31.279Z,2.92
2022-10-15T14:02:01.308Z,6.97
2022-10-15T14:04:29.923Z,20.77
2022-10-15T14:07:22.823Z,26.65
2022-10-15T14:09:50.640Z,91.55
2022-10-15T14:12:17.188Z,20.27
2022-10-15T14:14:49.360Z,26.98
2022-10-15T14:17:26.658Z,52.65
2022-10-15T14:20:25.640Z,102.30
2022-10-15T14:22:51.388Z,35.00
2022-10-15T14:25:23.741Z,33.15
2022-10-15T14:27:50.972Z,22.05
2022-10-15T14:30:39.466Z,42.47
2022-10-15T14:33:25.946Z,9.60
2022-10-15T14:36:24.011Z,4.30
2022-10-15T14:38:52.237Z,4.18
2022-10-15T14:41:27.001Z,4.50
2022-10-15T14:44:02.365Z,5.30
2022-10-15T14:46:55.821Z,14.20
2022-10-15T14:49:31.955Z,4.90
2022-10-15T14:52:04.618Z,2.85
2022-10-15T14:54:35.283Z,2.95
2022-10-15T14:57:02.303Z,2.50
2022-10-15T14:59:33.130Z,3.42
2022-10-15T15:02:03.133Z,2.92
2022-10-15T15:04:39.469Z,3.42
2022-10-15T15:07:20.983Z,3.05
2022-10-15T15:09:48.292Z,3.65
2022-10-15T15:12:24.279Z,3.28
2022-10-15T15:14:53.754Z,3.78
2022-10-15T15:17:23.380Z,3.35
2022-10-15T15:19:51.952Z,3.80
2022-10-15T15:22:26.157Z,2.70
2022-10-15T15:24:53.109Z,3.20
2022-10-15T15:27:25.578Z,2.38
2022-10-15T15:29:53.154Z,3.13
2022-10-15T15:32:20.693Z,3.45
2022-10-15T15:34:48.945Z,2.55
2022-10-15T15:37:21.032Z,3.05
2022-10-15T15:39:48.509Z,3.33
2022-10-15T15:42:18.495Z,3.15
2022-10-15T15:44:45.095Z,2.60
2022-10-15T15:47:12.181Z,2.90
2022-10-15T15:49:39.461Z,3.58
2022-10-15T15:52:14.040Z,3.35
2022-10-15T15:54:41.184Z,4.13
2022-10-15T15:57:07.888Z,3.38
2022-10-15T15:59:34.750Z,3.55
2022-10-15T16:02:01.440Z,3.63
2022-10-15T16:04:28.088Z,4.03
2022-10-15T16:06:54.689Z,3.80
2022-10-15T16:09:23.001Z,3.50
2022-10-15T16:11:50.990Z,3.13
2022-10-15T16:14:17.554Z,3.33
2022-10-15T16:16:44.218Z,5.20
2022-10-15T16:19:10.862Z,4.28
2022-10-15T16:21:37.534Z,4.20
2022-10-15T16:24:04.375Z,6.13
2022-10-15T16:26:30.974Z,5.63
2022-10-15T16:28:57.576Z,5.53
2022-10-15T16:31:29.503Z,4.80
2022-10-15T16:33:57.333Z,4.53
2022-10-15T16:36:23.905Z,5.38
2022-10-15T16:38:50.463Z,5.40
2022-10-15T16:41:21.139Z,5.10
2022-10-15T16:43:47.790Z,4.70
2022-10-15T16:46:15.878Z,5.63
2022-10-15T16:48:42.874Z,6.55
2022-10-15T16:51:13.876Z,5.90
2022-10-15T16:53:42.712Z,5.82
2022-10-15T16:56:15.372Z,6.50
2022-10-15T16:58:42.534Z,5.85
2022-10-15T17:01:12.433Z,7.18
2022-10-15T17:03:40.667Z,5.50
2022-10-15T17:06:10.827Z,6.60
2022-10-15T17:08:48.415Z,7.45
2022-10-15T17:11:17.723Z,7.38
2022-10-15T17:13:44.393Z,8.48
2022-10-15T17:16:10.941Z,7.60
2022-10-15T17:18:37.603Z,7.85
2022-10-15T17:21:04.288Z,8.35
2022-10-15T17:23:31.396Z,7.07
2022-10-15T17:26:03.551Z,7.95
2022-10-15T17:28:30.096Z,8.38
2022-10-15T17:30:56.683Z,8.50
2022-10-15T17:33:23.255Z,8.68
2022-10-15T17:35:49.796Z,9.40
2022-10-15T17:38:19.191Z,8.68
2022-10-15T17:40:48.439Z,7.78
2022-10-15T17:43:14.997Z,8.95
2022-10-15T17:45:41.699Z,9.25
2022-10-15T17:48:08.266Z,9.10
2022-10-15T17:50:34.791Z,8.70
2022-10-15T17:53:03.120Z,8.80
2022-10-15T17:55:30.793Z,10.55
2022-10-15T17:57:58.409Z,9.70
2022-10-15T18:00:24.964Z,8.85
2022-10-15T18:02:51.599Z,10.55
2022-10-15T18:05:18.153Z,10.27
2022-10-15T18:07:44.729Z,10.48
2022-10-15T18:10:12.628Z,10.90
2022-10-15T18:12:39.222Z,12.57
2022-10-15T18:15:06.740Z,9.32
2022-10-15T18:17:33.302Z,9.50
2022-10-15T18:19:59.926Z,11.18
2022-10-15T18:22:26.488Z,10.18
2022-10-15T18:24:54.952Z,12.95
2022-10-15T18:27:22.015Z,11.32
2022-10-15T18:29:48.584Z,10.02
2022-10-15T18:32:15.582Z,10.60
2022-10-15T18:34:42.099Z,12.10
2022-10-15T18:37:08.664Z,10.90
2022-10-15T18:39:35.305Z,10.00
2022-10-15T18:42:01.849Z,9.70
2022-10-15T18:44:29.332Z,10.73
2022-10-15T18:46:56.165Z,11.65
2022-10-15T18:49:22.766Z,10.50
2022-10-15T18:51:53.115Z,10.73
2022-10-15T18:54:20.731Z,9.60
2022-10-15T18:56:47.372Z,9.38
2022-10-15T18:59:13.945Z,11.70
2022-10-15T19:01:42.144Z,9.73
2022-10-15T19:04:14.060Z,11.43
2022-10-15T19:06:43.745Z,12.48
2022-10-15T19:09:13.091Z,12.55
2022-10-15T19:11:41.727Z,12.65
2022-10-15T19:14:09.031Z,13.45
2022-10-15T19:16:35.969Z,15.30
2022-10-15T19:19:04.419Z,14.93
2022-10-15T19:21:32.335Z,14.52
2022-10-15T19:23:59.438Z,16.05
2022-10-15T19:26:26.958Z,14.63
2022-10-15T19:28:53.628Z,14.50
2022-10-15T19:31:26.622Z,15.65
2022-10-15T19:33:54.283Z,15.18
2022-10-15T19:36:24.447Z,13.20
2022-10-15T19:38:51.021Z,12.95
2022-10-15T19:41:19.307Z,12.02
2022-10-15T19:43:46.360Z,13.07
2022-10-15T19:46:13.194Z,12.10
2022-10-15T19:48:39.987Z,13.15
2022-10-15T19:51:07.145Z,15.10
2022-10-15T19:53:34.376Z,14.18
2022-10-15T19:56:04.873Z,14.43
2022-10-15T19:58:32.230Z,16.08
2022-10-15T20:00:59.492Z,13.65
2022-10-15T20:03:28.096Z,12.68
2022-10-15T20:05:55.602Z,13.60
2022-10-15T20:08:22.706Z,15.43
2022-10-15T20:10:51.463Z,16.33
2022-10-15T20:13:19.835Z,14.48
2022-10-15T20:15:48.449Z,15.40
2022-10-15T20:18:15.883Z,12.52
2022-10-15T20:20:45.427Z,10.32
2022-10-15T20:23:14.565Z,10.63
2022-10-15T20:25:42.931Z,10.57
2022-10-15T20:28:10.910Z,12.50
2022-10-15T20:30:38.426Z,11.30
2022-10-15T20:33:06.471Z,9.80
2022-10-15T20:35:37.391Z,10.77
2022-10-15T20:38:04.819Z,10.52
2022-10-15T20:40:31.974Z,9.00
2022-10-15T20:42:58.586Z,11.25
2022-10-15T20:45:29.979Z,9.57
2022-10-15T20:47:58.058Z,10.65
2022-10-15T20:50:28.160Z,11.23
2022-10-15T20:52:57.277Z,11.52
2022-10-15T20:55:24.398Z,8.43
2022-10-15T20:57:51.560Z,8.60
2022-10-15T21:00:18.133Z,9.13
2022-10-15T21:02:44.709Z,9.05
2022-10-15T21:05:11.596Z,9.68
2022-10-15T21:07:38.246Z,10.02
2022-10-15T21:10:05.431Z,9.15
2022-10-15T21:12:32.042Z,9.30
2022-10-15T21:14:58.573Z,8.70
2022-10-15T21:17:25.483Z,7.97
2022-10-15T21:19:52.963Z,8.82
2022-10-15T21:22:19.939Z,11.63
2022-10-15T21:24:46.521Z,17.92
2022-10-15T21:27:13.116Z,16.77
2022-10-15T21:29:39.754Z,15.93
2022-10-15T21:32:06.360Z,14.77
2022-10-15T21:34:32.973Z,12.35
2022-10-15T21:36:59.574Z,12.52
2022-10-15T21:39:26.245Z,11.57
2022-10-15T21:41:52.887Z,11.32
2022-10-15T21:44:19.421Z,11.52
2022-10-15T21:46:46.054Z,11.88
2022-10-15T21:49:13.957Z,10.55
2022-10-15T21:51:40.584Z,8.70
2022-10-15T21:54:09.049Z,8.23
2022-10-15T21:56:36.540Z,8.05
2022-10-15T21:59:03.628Z,8.65
2022-10-15T22:01:32.777Z,10.90
2022-10-15T22:04:05.327Z,10.70
2022-10-15T22:06:32.499Z,9.13
2022-10-15T22:08:59.382Z,10.23
2022-10-15T22:11:30.872Z,10.98
2022-10-15T22:13:59.858Z,8.52
2022-10-15T22:16:27.884Z,8.10
2022-10-15T22:18:57.402Z,10.02
2022-10-15T22:21:29.749Z,8.80
2022-10-15T22:24:02.277Z,8.75
2022-10-15T22:26:38.894Z,9.18
2022-10-15T22:29:07.418Z,14.25
2022-10-15T22:31:34.555Z,11.07
2022-10-15T22:34:01.282Z,9.55
2022-10-15T22:36:29.809Z,9.77
2022-10-15T22:38:58.728Z,9.40
2022-10-15T22:41:25.368Z,8.65
2022-10-15T22:43:52.273Z,9.48
2022-10-15T22:46:18.820Z,10.88
2022-10-15T22:48:45.451Z,9.27
2022-10-15T22:51:13.904Z,7.35
2022-10-15T22:53:41.215Z,9.63
2022-10-15T22:56:11.898Z,8.63
2022-10-15T22:58:38.882Z,8.82
2022-10-15T23:01:13.183Z,9.65
2022-10-15T23:03:41.814Z,9.30
2022-10-15T23:06:09.101Z,8.80
2022-10-15T23:08:36.593Z,7.80
2022-10-15T23:11:09.612Z,10.30
2022-10-15T23:13:37.515Z,11.52
2022-10-15T23:16:07.129Z,8.20
2022-10-15T23:18:33.772Z,8.30
2022-10-15T23:21:11.947Z,8.43
2022-10-15T23:23:38.491Z,8.85
2022-10-15T23:26:05.058Z,9.02
2022-10-15T23:28:31.755Z,6.25
2022-10-15T23:30:58.316Z,8.50
2022-10-15T23:33:24.877Z,8.60
2022-10-15T23:35:58.859Z,8.48
2022-10-15T23:38:25.526Z,7.97
2022-10-15T23:40:52.783Z,8.23
2022-10-15T23:43:19.619Z,7.95
2022-10-15T23:45:46.179Z,8.85
2022-10-15T23:48:12.752Z,10.63
2022-10-15T23:50:39.539Z,8.25
2022-10-15T23:53:06.093Z,7.70
2022-10-15T23:55:38.014Z,8.05
2022-10-15T23:58:04.590Z,9.38
